createdAt,value
2024-03-16T00:01:54.018Z,1006.7
2024-03-16T00:04:53.428Z,1006.7
2024-03-16T00:07:53.663Z,1006.7
2024-03-16T00:10:53.596Z,1006.7
2024-03-16T00:13:53.527Z,1006.8
2024-03-16T00:16:54.022Z,1006.8
2024-03-16T00:19:53.544Z,1006.8
2024-03-16T00:22:53.514Z,1006.9
2024-03-16T00:25:53.294Z,1006.9
2024-03-16T00:28:53.561Z,1006.9
2024-03-16T00:31:55.651Z,1006.9
2024-03-16T00:34:53.565Z,1006.9
2024-03-16T00:37:53.598Z,1006.8
2024-03-16T00:40:54.261Z,1006.9
2024-03-16T00:43:53.603Z,1007.0
2024-03-16T00:46:53.626Z,1007.0
2024-03-16T00:49:54.161Z,1007.0
2024-03-16T00:52:53.892Z,1007.0
2024-03-16T00:55:54.120Z,1007.1
2024-03-16T00:58:53.514Z,1007.1
2024-03-16T01:01:53.874Z,1007.1
2024-03-16T01:04:53.326Z,1007.1
2024-03-16T01:07:53.368Z,1007.1
2024-03-16T01:10:53.418Z,1007.2
2024-03-16T01:13:53.282Z,1007.2
2024-03-16T01:16:53.657Z,1007.3
2024-03-16T01:19:53.843Z,1007.3
2024-03-16T01:22:53.597Z,1007.3
2024-03-16T01:25:53.651Z,1007.3
2024-03-16T01:28:53.762Z,1007.3
2024-03-16T01:31:53.758Z,1007.4
2024-03-16T01:34:53.396Z,1007.4
2024-03-16T01:37:53.391Z,1007.4
2024-03-16T01:40:53.544Z,1007.4
2024-03-16T01:43:53.661Z,1007.5
2024-03-16T01:46:53.590Z,1007.5
2024-03-16T01:49:53.385Z,1007.5
2024-03-16T01:52:53.489Z,1007.5
2024-03-16T01:55:53.500Z,1007.5
2024-03-16T01:58:53.530Z,1007.5
2024-03-16T02:01:55.162Z,1007.6
2024-03-16T02:04:53.464Z,1007.6
2024-03-16T02:07:53.330Z,1007.6
2024-03-16T02:10:53.479Z,1007.7
2024-03-16T02:13:53.427Z,1007.7
2024-03-16T02:16:53.471Z,1007.7
2024-03-16T02:19:53.442Z,1007.7
2024-03-16T02:22:53.768Z,1007.8
2024-03-16T02:25:53.879Z,1007.8
2024-03-16T02:28:56.026Z,1007.9
2024-03-16T02:31:54.958Z,1007.9
2024-03-16T02:34:53.656Z,1008.1
2024-03-16T02:37:53.406Z,1008.1
2024-03-16T02:40:53.777Z,1008.2
2024-03-16T02:43:53.308Z,1008.3
2024-03-16T02:46:53.341Z,1008.3
2024-03-16T02:49:53.519Z,1008.4
2024-03-16T02:52:53.755Z,1008.4
2024-03-16T02:55:53.368Z,1008.5
2024-03-16T02:58:53.270Z,1008.5
2024-03-16T03:01:54.203Z,1008.6
2024-03-16T03:04:53.440Z,1008.6
2024-03-16T03:07:53.333Z,1008.6
2024-03-16T03:10:53.339Z,1008.7
2024-03-16T03:13:53.669Z,1008.7
2024-03-16T03:16:53.423Z,1008.8
2024-03-16T03:19:53.810Z,1008.9
2024-03-16T03:22:53.585Z,1008.9
2024-03-16T03:25:55.421Z,1009.0
2024-03-16T03:28:53.330Z,1009.0
2024-03-16T03:31:54.047Z,1009.1
2024-03-16T03:34:53.545Z,1009.1
2024-03-16T03:37:53.725Z,1009.2
2024-03-16T03:40:53.938Z,1009.2
2024-03-16T03:43:53.262Z,1009.2
2024-03-16T03:46:53.514Z,1009.2
2024-03-16T03:49:53.662Z,1009.3
2024-03-16T03:52:55.539Z,1009.4
2024-03-16T03:55:53.897Z,1009.5
2024-03-16T03:58:55.259Z,1009.6
2024-03-16T04:01:54.452Z,1009.7
2024-03-16T04:04:53.415Z,1009.7
2024-03-16T04:07:53.381Z,1009.8
2024-03-16T04:10:53.444Z,1009.8
2024-03-16T04:13:53.394Z,1009.9
2024-03-16T04:16:53.692Z,1009.9
2024-03-16T04:19:53.667Z,1010.0
2024-03-16T04:22:53.437Z,1010.0
2024-03-16T04:25:54.169Z,1010.0
2024-03-16T04:28:53.418Z,1010.1
2024-03-16T04:31:53.321Z,1010.1
2024-03-16T04:34:53.449Z,1010.2
2024-03-16T04:37:53.316Z,1010.2
2024-03-16T04:40:53.501Z,1010.3
2024-03-16T04:43:53.745Z,1010.5
2024-03-16T04:46:53.902Z,1010.6
2024-03-16T04:49:53.573Z,1010.7
2024-03-16T04:52:53.449Z,1010.7
2024-03-16T04:55:53.432Z,1010.7
2024-03-16T04:58:53.178Z,1010.8
2024-03-16T05:01:53.894Z,1010.8
2024-03-16T05:04:54.822Z,1010.9
2024-03-16T05:07:53.315Z,1011.0
2024-03-16T05:10:53.579Z,1011.0
2024-03-16T05:13:53.442Z,1011.1
2024-03-16T05:16:53.329Z,1011.2
2024-03-16T05:19:53.727Z,1011.2
2024-03-16T05:22:55.340Z,1011.3
2024-03-16T05:25:53.464Z,1011.3
2024-03-16T05:28:56.653Z,1011.4
2024-03-16T05:31:53.849Z,1011.4
2024-03-16T05:34:53.599Z,1011.5
2024-03-16T05:37:53.412Z,1011.5
2024-03-16T05:40:53.859Z,1011.7
2024-03-16T05:43:53.551Z,1011.7
2024-03-16T05:46:53.662Z,1011.8
2024-03-16T05:49:54.524Z,1012.0
2024-03-16T05:52:53.350Z,1012.0
2024-03-16T05:55:53.641Z,1012.1
2024-03-16T05:58:53.521Z,1012.2
2024-03-16T06:01:55.422Z,1012.2
2024-03-16T06:04:53.423Z,1012.3
2024-03-16T06:07:53.339Z,1012.4
2024-03-16T06:10:53.807Z,1012.5
2024-03-16T06:13:53.611Z,1012.6
2024-03-16T06:16:53.887Z,1012.6
2024-03-16T06:19:53.803Z,1012.8
2024-03-16T06:22:53.301Z,1012.8
2024-03-16T06:25:53.480Z,1012.8
2024-03-16T06:28:53.232Z,1013.0
2024-03-16T06:31:56.351Z,1013.2
2024-03-16T06:34:53.495Z,1013.2
2024-03-16T06:37:55.294Z,1013.3
2024-03-16T06:40:53.565Z,1013.3
2024-03-16T06:43:53.403Z,1013.4
2024-03-16T06:46:53.394Z,1013.5
2024-03-16T06:49:53.385Z,1013.6
2024-03-16T06:52:53.289Z,1013.6
2024-03-16T06:55:53.543Z,1013.7
2024-03-16T06:58:53.365Z,1013.8
2024-03-16T07:01:53.755Z,1013.8
2024-03-16T07:04:53.501Z,1013.9
2024-03-16T07:07:53.447Z,1013.9
2024-03-16T07:10:53.529Z,1014.1
2024-03-16T07:13:53.347Z,1014.2
2024-03-16T07:16:53.581Z,1014.2
2024-03-16T07:19:53.544Z,1014.3
2024-03-16T07:22:53.430Z,1014.3
2024-03-16T07:25:53.444Z,1014.4
2024-03-16T07:28:54.104Z,1014.5
2024-03-16T07:31:53.751Z,1014.6
2024-03-16T07:34:53.751Z,1014.7
2024-03-16T07:37:53.419Z,1014.8
2024-03-16T07:40:53.648Z,1014.8
2024-03-16T07:43:53.506Z,1014.9
2024-03-16T07:46:53.544Z,1015.0
2024-03-16T07:49:58.246Z,1015.0
2024-03-16T07:52:53.254Z,1015.0
2024-03-16T07:55:53.498Z,1015.1
2024-03-16T07:58:53.390Z,1015.2
2024-03-16T08:01:54.432Z,1015.2
2024-03-16T08:04:53.466Z,1015.3
2024-03-16T08:07:53.429Z,1015.3
2024-03-16T08:10:54.054Z,1015.4
2024-03-16T08:13:54.773Z,1015.4
2024-03-16T08:16:53.504Z,1015.5
2024-03-16T08:19:53.898Z,1015.5
2024-03-16T08:22:53.445Z,1015.5
2024-03-16T08:25:53.730Z,1015.6
2024-03-16T08:28:57.563Z,1015.7
2024-03-16T08:31:54.140Z,1015.8
2024-03-16T08:34:54.260Z,1015.8
2024-03-16T08:37:54.329Z,1015.9
2024-03-16T08:40:53.578Z,1016.0
2024-03-16T08:43:53.600Z,1016.1
2024-03-16T08:46:56.142Z,1016.1
2024-03-16T08:49:53.869Z,1016.1
2024-03-16T08:52:55.290Z,1016.1
2024-03-16T08:55:53.842Z,1016.2
2024-03-16T08:58:53.739Z,1016.2
2024-03-16T09:01:54.556Z,1016.2
2024-03-16T09:04:53.161Z,1016.2
2024-03-16T09:07:53.400Z,1016.2
2024-03-16T09:10:53.540Z,1016.3
2024-03-16T09:13:53.424Z,1016.3
2024-03-16T09:16:53.698Z,1016.4
2024-03-16T09:19:53.416Z,1016.5
2024-03-16T09:22:53.321Z,1016.5
2024-03-16T09:25:53.426Z,1016.5
2024-03-16T09:28:53.344Z,1016.7
2024-03-16T09:31:54.200Z,1016.7
2024-03-16T09:34:53.516Z,1016.7
2024-03-16T09:37:53.318Z,1016.8
2024-03-16T09:40:53.415Z,1016.9
2024-03-16T09:43:53.305Z,1016.9
2024-03-16T09:46:53.313Z,1017.0
2024-03-16T09:49:53.597Z,1016.9
2024-03-16T09:52:53.396Z,1017.0
2024-03-16T09:55:53.333Z,1017.0
2024-03-16T09:58:53.376Z,1017.0
2024-03-16T10:01:53.789Z,1017.1
2024-03-16T10:04:56.273Z,1017.2
2024-03-16T10:07:53.429Z,1017.3
2024-03-16T10:10:53.712Z,1017.2
2024-03-16T12:10:57.244Z,1018.8
2024-03-16T12:13:53.197Z,1018.8
2024-03-16T12:16:55.860Z,1018.8
2024-03-16T12:19:53.202Z,1018.8
2024-03-16T12:22:53.292Z,1018.8
2024-03-16T12:25:53.135Z,1018.8
2024-03-16T12:28:57.235Z,1018.9
2024-03-16T12:31:53.389Z,1018.9
2024-03-16T12:34:53.113Z,1018.9
2024-03-16T12:37:53.333Z,1018.9
2024-03-16T12:40:53.196Z,1018.9
2024-03-16T12:43:54.708Z,1019.0
2024-03-16T12:46:53.390Z,1019.0
2024-03-16T12:49:53.636Z,1019.0
2024-03-16T12:52:53.133Z,1019.0
2024-03-16T12:55:57.145Z,1019.0
2024-03-16T12:58:53.110Z,1019.1
2024-03-16T13:01:53.455Z,1019.1
2024-03-16T13:04:53.297Z,1019.2
2024-03-16T13:07:53.308Z,1019.2
2024-03-16T13:10:53.530Z,1019.2
2024-03-16T13:37:53.224Z,1019.2
2024-03-16T13:40:53.356Z,1019.2
2024-03-16T13:43:53.068Z,1019.2
2024-03-16T13:46:53.254Z,1019.2
2024-03-16T13:49:53.288Z,1019.3
2024-03-16T13:53:00.721Z,1019.3
2024-03-16T13:55:53.296Z,1019.3
2024-03-16T13:58:53.218Z,1019.3
2024-03-16T14:01:53.506Z,1019.4
2024-03-16T14:04:53.483Z,1019.4
2024-03-16T14:07:53.080Z,1019.5
2024-03-16T14:10:53.341Z,1019.4
2024-03-16T14:13:54.080Z,1019.5
2024-03-16T14:16:53.482Z,1019.5
2024-03-16T14:19:54.017Z,1019.5
2024-03-16T14:22:53.200Z,1019.5
2024-03-16T14:25:54.203Z,1019.6
2024-03-16T14:28:53.579Z,1019.5
2024-03-16T14:31:53.497Z,1019.5
2024-03-16T14:34:54.501Z,1019.6
2024-03-16T14:37:53.547Z,1019.6
2024-03-16T14:40:53.769Z,1019.6
2024-03-16T14:43:53.534Z,1019.6
2024-03-16T14:46:54.296Z,1019.6
2024-03-16T14:49:53.170Z,1019.7
2024-03-16T14:52:53.135Z,1019.6
2024-03-16T14:55:53.366Z,1019.6
2024-03-16T14:58:53.585Z,1019.6
2024-03-16T15:01:53.627Z,1019.6
2024-03-16T15:04:53.283Z,1019.6
2024-03-16T15:07:55.559Z,1019.6
2024-03-16T15:10:53.644Z,1019.6
2024-03-16T15:13:53.371Z,1019.6
2024-03-16T15:16:53.387Z,1019.6
2024-03-16T15:19:53.575Z,1019.6
2024-03-16T15:22:53.551Z,1019.6
2024-03-16T15:25:53.335Z,1019.6
2024-03-16T15:28:53.769Z,1019.6
2024-03-16T15:31:53.720Z,1019.6
2024-03-16T15:34:53.344Z,1019.7
2024-03-16T15:37:53.774Z,1019.6
2024-03-16T15:40:55.440Z,1019.7
2024-03-16T15:43:53.568Z,1019.7
2024-03-16T15:46:55.805Z,1019.7
2024-03-16T15:49:53.546Z,1019.7
2024-03-16T15:53:05.602Z,1019.8
2024-03-16T15:55:54.741Z,1019.8
2024-03-16T15:58:54.017Z,1019.9
2024-03-16T16:01:54.173Z,1019.8
2024-03-16T16:04:58.096Z,1019.8
2024-03-16T16:07:53.878Z,1019.9
2024-03-16T16:10:54.248Z,1019.9
2024-03-16T16:13:54.126Z,1019.9
2024-03-16T16:16:54.071Z,1020.0
2024-03-16T16:19:53.905Z,1020.0
2024-03-16T16:22:53.646Z,1020.0
2024-03-16T16:25:56.298Z,1020.0
2024-03-16T16:29:00.771Z,1020.0
2024-03-16T16:31:54.138Z,1020.0
2024-03-16T16:34:53.914Z,1020.0
2024-03-16T16:37:53.939Z,1020.0
2024-03-16T16:40:53.405Z,1020.1
2024-03-16T16:43:53.790Z,1020.1
2024-03-16T16:46:53.613Z,1020.1
2024-03-16T16:49:55.113Z,1020.1
2024-03-16T16:52:53.940Z,1020.2
2024-03-16T16:55:53.950Z,1020.2
2024-03-16T16:58:53.276Z,1020.2
2024-03-16T17:01:53.580Z,1020.2
2024-03-16T17:04:53.218Z,1020.2
2024-03-16T17:07:53.703Z,1020.3
2024-03-16T17:10:54.471Z,1020.3
2024-03-16T18:01:54.460Z,1020.6
2024-03-16T18:04:53.509Z,1020.7
2024-03-16T18:07:53.589Z,1020.7
2024-03-16T18:10:53.739Z,1020.7
2024-03-16T18:13:53.566Z,1020.7
2024-03-16T18:17:00.486Z,1020.8
2024-03-16T18:20:01.400Z,1020.8
2024-03-16T18:22:53.745Z,1020.9
2024-03-16T18:25:53.455Z,1021.0
2024-03-16T18:28:53.518Z,1021.0
2024-03-16T18:31:54.221Z,1021.0
2024-03-16T18:35:06.685Z,1020.9
2024-03-16T18:37:53.515Z,1020.9
2024-03-16T18:40:53.643Z,1021.0
2024-03-16T18:43:53.730Z,1020.9
2024-03-16T18:46:56.821Z,1020.9
2024-03-16T18:49:53.288Z,1021.0
2024-03-16T18:52:53.476Z,1021.0
2024-03-16T18:55:53.645Z,1021.0
2024-03-16T18:58:53.420Z,1021.0
2024-03-16T19:01:54.111Z,1021.0
2024-03-16T19:04:56.858Z,1021.0
2024-03-16T19:07:53.718Z,1021.0
2024-03-16T19:10:53.842Z,1020.9
2024-03-16T19:13:53.653Z,1020.9
2024-03-16T19:16:56.536Z,1020.9
2024-03-16T19:19:54.895Z,1020.9
2024-03-16T19:22:54.234Z,1021.0
2024-03-16T19:25:53.719Z,1021.0
2024-03-16T19:28:53.694Z,1021.0
2024-03-16T19:34:53.813Z,1021.0
2024-03-16T20:01:54.527Z,1021.2
2024-03-16T20:04:55.602Z,1021.3
2024-03-16T20:07:53.356Z,1021.2
2024-03-16T20:10:53.704Z,1021.2
2024-03-16T20:13:53.590Z,1021.2
2024-03-16T20:16:54.173Z,1021.1
2024-03-16T20:19:53.389Z,1021.2
2024-03-16T20:22:53.974Z,1021.2
2024-03-16T20:25:53.471Z,1021.2
2024-03-16T20:28:56.919Z,1021.1
2024-03-16T20:31:53.769Z,1021.2
2024-03-16T20:34:54.459Z,1021.2
2024-03-16T20:37:53.225Z,1021.1
2024-03-16T20:40:56.440Z,1021.1
2024-03-16T20:43:53.314Z,1021.2
2024-03-16T20:46:53.238Z,1021.2
2024-03-16T20:49:53.547Z,1021.2
2024-03-16T21:01:53.784Z,1021.2
2024-03-16T21:04:54.593Z,1021.3
2024-03-16T21:07:53.285Z,1021.2
2024-03-16T21:10:53.528Z,1021.2
2024-03-16T21:13:53.154Z,1021.3
2024-03-16T21:16:53.209Z,1021.3
2024-03-16T21:19:53.213Z,1021.3
2024-03-16T21:22:53.702Z,1021.3
2024-03-16T21:25:53.231Z,1021.3
2024-03-16T21:28:53.105Z,1021.3
2024-03-16T21:31:53.793Z,1021.3
2024-03-16T21:34:56.761Z,1021.3
2024-03-16T21:37:53.386Z,1021.3
2024-03-16T21:40:53.272Z,1021.2
2024-03-16T21:43:53.181Z,1021.2
2024-03-16T21:46:53.352Z,1021.2
2024-03-16T21:49:53.225Z,1021.2
2024-03-16T21:52:56.236Z,1021.2
2024-03-16T21:55:53.227Z,1021.2
2024-03-16T21:58:53.323Z,1021.2
2024-03-16T22:01:53.553Z,1021.2
2024-03-16T22:04:53.126Z,1021.1
2024-03-16T22:07:53.169Z,1021.1
2024-03-16T22:10:53.268Z,1021.2
2024-03-16T22:13:53.157Z,1021.2
2024-03-16T22:16:53.238Z,1021.2
2024-03-16T22:19:53.141Z,1021.2
2024-03-16T22:22:53.260Z,1021.1
2024-03-16T22:25:53.296Z,1021.1
2024-03-16T22:28:53.359Z,1021.2
2024-03-16T22:31:53.528Z,1021.2
2024-03-16T22:34:53.146Z,1021.2
2024-03-16T22:37:53.518Z,1021.2
2024-03-16T22:40:53.308Z,1021.2
2024-03-16T22:46:53.528Z,1021.3
2024-03-16T22:49:53.139Z,1021.3
2024-03-16T22:52:53.148Z,1021.3
2024-03-16T22:55:53.069Z,1021.3
2024-03-16T22:58:53.080Z,1021.3
2024-03-16T23:01:53.672Z,1021.3
2024-03-16T23:04:53.108Z,1021.3
2024-03-16T23:07:56.967Z,1021.3
2024-03-16T23:10:53.214Z,1021.3
2024-03-16T23:13:53.187Z,1021.3
2024-03-16T23:16:53.314Z,1021.3
2024-03-16T23:19:53.133Z,1021.3
2024-03-16T23:22:54.546Z,1021.2
2024-03-16T23:25:53.112Z,1021.2
2024-03-16T23:28:53.168Z,1021.2
2024-03-16T23:31:53.358Z,1021.2
2024-03-16T23:34:53.078Z,1021.1
2024-03-16T23:37:53.405Z,1021.2
2024-03-16T23:40:53.233Z,1021.1
2024-03-16T23:43:53.210Z,1021.2
2024-03-16T23:46:53.179Z,1021.2
2024-03-16T23:49:53.125Z,1021.1
2024-03-16T23:52:53.201Z,1021.0
2024-03-16T23:55:53.109Z,1021.0
2024-03-16T23:58:53.595Z,1021.0
